Terminal Aerodrome Forecast
Issued by NWS

Current Version | Previous Version | Text Only | Print | Product List | Glossary Off
Versions: 1 2 3 4 5 6 7 8 9 10 11 12 13 14 15 16 17 18 19 20

000
FTUS41 KRNK 231125
TAFLWB
TAF
KLWB 231125Z 2312/2412 26006KT P6SM VCSH BKN035
      TEMPO 2313/2315 4SM -SHRA BKN035
     FM231500 27007KT P6SM SCT040 BKN080
     FM240000 25005KT P6SM SCT080
     FM241100 00000KT P6SM SCT020=

USA.gov is the U.S. government's official web portal to all federal, state and local government web resources and services.